createdAt,value
2019-05-03T00:01:16.148Z,5.80
2019-05-03T00:02:37.608Z,5.80
2019-05-03T00:03:42.522Z,6.03
2019-05-03T00:04:48.067Z,6.03
2019-05-03T00:06:08.066Z,5.97
2019-05-03T00:07:11.913Z,6.27
2019-05-03T00:08:15.571Z,6.63
2019-05-03T00:09:19.992Z,5.60
2019-05-03T00:10:23.948Z,6.00
2019-05-03T00:11:27.576Z,6.17
2019-05-03T00:12:32.758Z,6.00
2019-05-03T00:13:36.533Z,5.63
2019-05-03T00:14:41.808Z,6.00
2019-05-03T00:15:47.071Z,6.70
2019-05-03T00:16:52.225Z,6.27
2019-05-03T00:17:55.990Z,6.00
2019-05-03T00:19:01.558Z,6.33
2019-05-03T00:20:06.742Z,5.73
2019-05-03T00:21:11.670Z,6.20
2019-05-03T00:22:15.574Z,6.10
2019-05-03T00:23:19.206Z,6.37
2019-05-03T00:24:22.877Z,5.77
2019-05-03T00:25:26.526Z,6.00
2019-05-03T00:26:31.843Z,6.07
2019-05-03T00:27:35.573Z,5.50
2019-05-03T00:28:39.216Z,5.83
2019-05-03T00:29:42.882Z,6.07
2019-05-03T00:30:46.528Z,5.93
2019-05-03T00:31:51.651Z,5.93
2019-05-03T00:32:55.752Z,6.03
2019-05-03T00:34:02.259Z,6.37
2019-05-03T00:35:12.073Z,6.13
2019-05-03T00:36:23.572Z,6.07
2019-05-03T00:37:28.849Z,5.97
2019-05-03T00:38:32.613Z,5.50
2019-05-03T00:39:38.326Z,5.97
2019-05-03T00:40:41.982Z,6.73
2019-05-03T00:41:45.621Z,6.27
2019-05-03T00:42:49.264Z,6.33
2019-05-03T00:43:52.983Z,6.13
2019-05-03T00:44:56.683Z,6.43
2019-05-03T00:46:02.013Z,5.93
2019-05-03T00:47:05.768Z,6.30
2019-05-03T00:48:09.411Z,6.33
2019-05-03T00:49:13.432Z,6.20
2019-05-03T00:50:17.094Z,6.47
2019-05-03T00:51:22.550Z,6.73
2019-05-03T00:52:26.150Z,6.97
2019-05-03T00:53:31.608Z,6.20
2019-05-03T00:54:35.144Z,6.13
2019-05-03T00:55:38.790Z,6.53
2019-05-03T00:56:44.426Z,6.60
2019-05-03T00:57:47.823Z,5.93
2019-05-03T00:58:53.200Z,6.07
2019-05-03T00:59:57.008Z,7.00
2019-05-03T01:01:02.589Z,6.20
2019-05-03T01:02:06.157Z,6.60
2019-05-03T01:03:09.805Z,5.87
2019-05-03T01:04:13.441Z,6.83
2019-05-03T01:05:19.134Z,6.07
2019-05-03T01:06:22.778Z,6.60
2019-05-03T01:07:26.436Z,6.93
2019-05-03T01:08:30.088Z,6.53
2019-05-03T01:09:33.896Z,6.73
2019-05-03T01:10:37.546Z,6.07
2019-05-03T01:11:41.821Z,6.93
2019-05-03T01:12:45.551Z,6.53
2019-05-03T01:13:49.186Z,6.57
2019-05-03T01:14:54.124Z,6.40
2019-05-03T01:15:59.344Z,6.27
2019-05-03T01:17:02.976Z,6.73
2019-05-03T01:18:08.328Z,6.57
2019-05-03T01:19:12.119Z,7.13
2019-05-03T01:20:15.871Z,6.37
2019-05-03T01:21:19.556Z,6.33
2019-05-03T01:22:23.214Z,6.43
2019-05-03T01:23:26.871Z,6.97
2019-05-03T01:24:32.307Z,7.07
2019-05-03T01:25:36.073Z,7.30
2019-05-03T01:26:41.942Z,7.07
2019-05-03T01:27:45.502Z,6.73
2019-05-03T01:28:49.199Z,7.00
2019-05-03T01:29:52.827Z,7.80
2019-05-03T01:30:58.934Z,6.73
2019-05-03T01:32:02.566Z,7.20
2019-05-03T01:33:06.195Z,7.40
2019-05-03T01:34:09.916Z,7.57
2019-05-03T01:35:13.538Z,7.43
2019-05-03T01:36:17.607Z,7.57
2019-05-03T01:37:22.683Z,7.27
2019-05-03T01:38:26.449Z,7.77
2019-05-03T01:39:31.660Z,7.70
2019-05-03T01:40:35.441Z,7.87
2019-05-03T01:41:39.092Z,7.47
2019-05-03T01:42:42.748Z,7.90
2019-05-03T01:43:46.372Z,7.47
2019-05-03T01:44:52.078Z,7.57
2019-05-03T01:45:55.482Z,7.70
2019-05-03T01:47:02.295Z,8.37
2019-05-03T01:48:07.673Z,8.13
2019-05-03T01:49:12.921Z,7.83
2019-05-03T01:50:33.166Z,7.87
2019-05-03T01:51:47.515Z,7.63
2019-05-03T01:52:52.800Z,7.53
2019-05-03T01:53:56.534Z,7.60
2019-05-03T01:55:00.246Z,8.00
2019-05-03T01:56:03.917Z,7.30
2019-05-03T01:57:07.980Z,7.57
2019-05-03T01:58:12.490Z,8.17
2019-05-03T01:59:16.251Z,8.20
2019-05-03T02:00:24.756Z,8.10
2019-05-03T02:01:46.244Z,8.37
2019-05-03T02:02:52.499Z,7.47
2019-05-03T02:03:57.863Z,7.20
2019-05-03T02:05:15.961Z,7.27
2019-05-03T02:06:19.649Z,8.00
2019-05-03T02:07:23.266Z,8.27
2019-05-03T02:08:26.914Z,7.27
2019-05-03T02:09:32.235Z,8.27
2019-05-03T02:10:36.067Z,7.63
2019-05-03T02:11:39.690Z,8.47
2019-05-03T02:12:43.350Z,8.30
2019-05-03T02:13:47.006Z,8.67
2019-05-03T02:14:51.653Z,7.53
2019-05-03T02:15:55.450Z,9.17
2019-05-03T02:16:59.252Z,8.60
2019-05-03T02:18:02.944Z,8.00
2019-05-03T02:19:06.890Z,7.20
2019-05-03T02:20:12.441Z,8.00
2019-05-03T02:21:16.070Z,7.40
2019-05-03T02:22:19.698Z,8.17
2019-05-03T02:23:23.356Z,8.20
2019-05-03T02:24:27.428Z,8.17
2019-05-03T02:25:32.365Z,8.40
2019-05-03T02:26:36.539Z,8.43
2019-05-03T02:27:42.038Z,7.87
2019-05-03T02:28:45.596Z,8.10
2019-05-03T02:29:49.523Z,8.77
2019-05-03T02:30:53.603Z,7.83
2019-05-03T02:31:57.305Z,8.67
2019-05-03T02:33:04.048Z,8.40
2019-05-03T02:34:06.713Z,7.60
2019-05-03T02:35:10.404Z,8.20
2019-05-03T02:36:14.343Z,9.10
2019-05-03T02:37:18.022Z,9.17
2019-05-03T02:38:23.573Z,8.67
2019-05-03T02:39:27.277Z,8.40
2019-05-03T02:40:33.585Z,8.70
2019-05-03T02:41:36.609Z,9.10
2019-05-03T02:42:40.608Z,8.43
2019-05-03T02:43:45.898Z,8.50
2019-05-03T02:44:49.563Z,8.00
2019-05-03T02:46:16.461Z,8.60
2019-05-03T02:47:20.649Z,9.00
2019-05-03T02:48:36.423Z,7.93
2019-05-03T02:49:45.554Z,8.47
2019-05-03T02:50:49.445Z,9.23
2019-05-03T02:51:55.238Z,8.43
2019-05-03T02:52:58.458Z,9.23
2019-05-03T02:54:02.108Z,8.87
2019-05-03T02:55:08.317Z,8.90
2019-05-03T02:56:21.029Z,9.50
2019-05-03T02:57:17.407Z,9.80
2019-05-03T02:58:21.136Z,8.37
2019-05-03T02:59:26.453Z,8.10
2019-05-03T03:01:01.468Z,9.13
2019-05-03T03:02:06.389Z,8.53
2019-05-03T03:03:10.988Z,8.63
2019-05-03T03:04:15.801Z,9.10
2019-05-03T03:05:20.158Z,8.67
2019-05-03T03:06:26.821Z,9.63
2019-05-03T03:07:31.825Z,9.60
2019-05-03T03:08:37.081Z,9.90
2019-05-03T03:09:41.827Z,9.93
2019-05-03T03:10:46.066Z,9.33
2019-05-03T03:11:51.115Z,9.60
2019-05-03T03:12:58.014Z,11.10
2019-05-03T03:14:05.838Z,9.43
2019-05-03T03:15:09.715Z,9.57
2019-05-03T03:16:15.210Z,9.23
2019-05-03T03:17:20.954Z,9.37
2019-05-03T03:18:25.524Z,9.03
2019-05-03T03:19:30.635Z,10.23
2019-05-03T03:20:37.277Z,10.40
2019-05-03T03:21:46.604Z,11.03
2019-05-03T03:22:55.414Z,9.63
2019-05-03T03:24:16.600Z,9.60
2019-05-03T03:25:25.761Z,16.70
2019-05-03T03:26:37.651Z,11.17
2019-05-03T03:27:38.594Z,11.77
2019-05-03T03:28:46.259Z,11.00
2019-05-03T03:29:55.163Z,11.13
2019-05-03T03:31:27.837Z,9.83
2019-05-03T03:32:32.219Z,9.87
2019-05-03T03:33:40.272Z,10.10
2019-05-03T03:34:55.433Z,9.93
2019-05-03T03:36:01.060Z,9.17
2019-05-03T03:37:06.416Z,9.90
2019-05-03T03:38:07.176Z,9.33
2019-05-03T03:39:10.865Z,9.30
2019-05-03T03:40:16.200Z,9.57
2019-05-03T03:41:21.051Z,10.37
2019-05-03T03:42:25.203Z,10.93
2019-05-03T03:43:30.964Z,11.93
2019-05-03T03:44:36.445Z,12.67
2019-05-03T03:45:41.180Z,12.20
2019-05-03T03:46:46.211Z,11.60
2019-05-03T03:47:55.809Z,11.77
2019-05-03T03:48:58.630Z,11.17
2019-05-03T03:50:05.903Z,10.97
2019-05-03T03:51:12.157Z,11.00
2019-05-03T03:52:17.264Z,10.67
2019-05-03T03:53:23.066Z,11.23
2019-05-03T03:54:28.120Z,9.70
2019-05-03T03:55:35.424Z,10.00
2019-05-03T03:56:54.508Z,9.73
2019-05-03T03:57:46.817Z,10.53
2019-05-03T03:58:52.100Z,10.90
2019-05-03T03:59:56.481Z,11.40
2019-05-03T04:01:00.246Z,11.97
2019-05-03T04:02:05.957Z,10.70
2019-05-03T04:03:10.299Z,10.00
2019-05-03T04:04:16.017Z,10.47
2019-05-03T04:05:19.957Z,10.37
2019-05-03T04:06:26.833Z,10.23
2019-05-03T04:07:31.491Z,10.30
2019-05-03T04:08:36.422Z,10.13
2019-05-03T04:09:40.556Z,9.60
2019-05-03T04:10:46.373Z,10.33
2019-05-03T04:11:49.965Z,10.63
2019-05-03T04:12:55.974Z,11.43
2019-05-03T04:13:59.027Z,10.53
2019-05-03T04:15:17.021Z,11.33
2019-05-03T04:16:22.513Z,10.37
2019-05-03T04:17:45.668Z,10.03
2019-05-03T04:18:55.124Z,9.67
2019-05-03T04:19:59.773Z,10.07
2019-05-03T04:21:05.496Z,9.77
2019-05-03T04:22:08.873Z,12.93
2019-05-03T04:23:16.015Z,11.43
2019-05-03T04:24:18.086Z,13.37
2019-05-03T04:25:22.330Z,13.00
2019-05-03T04:26:29.788Z,13.10
2019-05-03T04:27:31.912Z,12.73
2019-05-03T04:28:36.277Z,12.63
2019-05-03T04:29:40.091Z,12.60
2019-05-03T04:30:45.996Z,13.03
2019-05-03T04:31:49.307Z,14.53
2019-05-03T04:32:56.187Z,14.57
2019-05-03T04:33:58.308Z,14.20
2019-05-03T04:35:02.000Z,13.67
2019-05-03T04:36:05.967Z,12.53
2019-05-03T04:37:12.390Z,12.70
2019-05-03T04:38:17.866Z,12.27
2019-05-03T04:39:21.623Z,12.67
2019-05-03T04:40:26.134Z,11.50
2019-05-03T04:41:30.131Z,11.87
2019-05-03T04:42:35.705Z,12.13
2019-05-03T04:43:39.210Z,14.53
2019-05-03T04:44:45.375Z,12.97
2019-05-03T04:45:51.254Z,13.10
2019-05-03T04:46:58.274Z,13.87
2019-05-03T04:48:05.730Z,14.00
2019-05-03T04:49:08.233Z,16.43
2019-05-03T04:50:11.973Z,16.13
2019-05-03T04:51:16.635Z,13.40
2019-05-03T04:52:20.477Z,13.13
2019-05-03T04:53:26.011Z,12.60
2019-05-03T04:54:31.050Z,14.07
2019-05-03T04:55:36.395Z,14.40
2019-05-03T04:56:40.283Z,13.67
2019-05-03T04:57:46.766Z,13.70
2019-05-03T04:58:49.596Z,13.37
2019-05-03T04:59:55.852Z,12.27
2019-05-03T05:00:59.160Z,12.47
2019-05-03T05:02:02.843Z,12.70
2019-05-03T05:03:06.519Z,11.43
2019-05-03T05:04:10.192Z,11.97
2019-05-03T05:05:15.367Z,12.03
2019-05-03T05:06:19.222Z,11.70
2019-05-03T05:07:25.732Z,10.93
2019-05-03T05:08:28.366Z,12.57
2019-05-03T05:09:31.992Z,12.27
2019-05-03T05:10:36.393Z,11.83
2019-05-03T05:11:40.264Z,12.77
2019-05-03T05:12:45.710Z,12.10
2019-05-03T05:13:49.327Z,12.97
2019-05-03T05:14:52.980Z,13.40
2019-05-03T05:15:56.613Z,12.37
2019-05-03T05:17:00.705Z,12.13
2019-05-03T05:18:08.916Z,12.23
2019-05-03T05:19:15.180Z,12.80
2019-05-03T05:20:20.675Z,11.70
2019-05-03T05:21:25.953Z,12.77
2019-05-03T05:22:34.955Z,13.23
2019-05-03T05:23:40.381Z,14.50
2019-05-03T05:24:44.986Z,13.53
2019-05-03T05:25:54.991Z,13.00
2019-05-03T05:27:17.018Z,11.80
2019-05-03T05:28:22.322Z,12.97
2019-05-03T05:29:36.596Z,12.63
2019-05-03T05:30:40.316Z,13.37
2019-05-03T05:31:44.653Z,14.13
2019-05-03T05:32:48.393Z,14.00
2019-05-03T05:33:52.051Z,13.80
2019-05-03T05:34:56.137Z,13.80
2019-05-03T05:35:59.877Z,13.30
2019-05-03T05:37:05.289Z,14.47
2019-05-03T05:38:09.119Z,13.77
2019-05-03T05:39:15.244Z,14.97
2019-05-03T05:40:22.099Z,13.77
2019-05-03T05:41:25.745Z,14.33
2019-05-03T05:42:29.380Z,14.13
2019-05-03T05:43:33.325Z,12.93
2019-05-03T05:44:37.003Z,12.93
2019-05-03T05:45:41.105Z,13.67
2019-05-03T05:47:04.593Z,12.60
2019-05-03T05:48:09.788Z,12.17
2019-05-03T05:49:15.091Z,11.73
2019-05-03T05:50:25.361Z,11.33
2019-05-03T05:51:29.250Z,11.10
2019-05-03T05:52:34.609Z,11.27
2019-05-03T05:53:38.321Z,10.90
2019-05-03T05:54:45.486Z,12.80
2019-05-03T05:56:06.566Z,12.60
2019-05-03T05:57:30.080Z,12.50
2019-05-03T05:58:41.393Z,13.30
2019-05-03T05:59:46.703Z,13.20
2019-05-03T06:01:08.353Z,13.10
2019-05-03T06:02:12.057Z,12.20
2019-05-03T06:03:15.770Z,13.17
2019-05-03T06:04:19.424Z,13.10
2019-05-03T06:05:25.151Z,12.77
2019-05-03T06:06:34.837Z,12.37
2019-05-03T06:07:40.247Z,12.97
2019-05-03T06:08:51.752Z,13.03
2019-05-03T06:10:14.678Z,12.70
2019-05-03T06:11:31.355Z,11.83
2019-05-03T06:12:42.398Z,11.63
2019-05-03T06:13:48.092Z,10.53
2019-05-03T06:14:54.451Z,10.93
2019-05-03T06:16:15.480Z,11.27
2019-05-03T06:17:20.950Z,11.10
2019-05-03T06:18:29.184Z,10.83
2019-05-03T06:19:34.658Z,12.07
2019-05-03T06:20:42.715Z,11.57
2019-05-03T06:21:54.871Z,11.03
2019-05-03T06:23:05.873Z,11.87
2019-05-03T06:24:11.193Z,11.27
2019-05-03T06:25:26.561Z,11.47
2019-05-03T06:26:41.277Z,11.07
2019-05-03T06:27:45.007Z,11.80
2019-05-03T06:28:48.655Z,10.60
2019-05-03T06:29:55.636Z,11.60
2019-05-03T06:31:14.857Z,12.50
2019-05-03T06:32:29.484Z,11.43
2019-05-03T06:33:34.746Z,11.03
2019-05-03T06:34:38.510Z,11.20
2019-05-03T06:35:42.250Z,10.83
2019-05-03T06:36:47.922Z,11.00
2019-05-03T06:37:54.546Z,10.80
2019-05-03T06:38:58.601Z,10.57
2019-05-03T06:40:05.808Z,10.03
2019-05-03T06:41:07.656Z,10.27
2019-05-03T06:42:16.046Z,10.20
2019-05-03T06:43:16.826Z,9.90
2019-05-03T06:44:24.839Z,9.50
2019-05-03T06:45:26.357Z,9.13
2019-05-03T06:46:46.700Z,9.80
2019-05-03T06:47:50.463Z,9.97
2019-05-03T06:48:54.363Z,9.73
2019-05-03T06:49:58.373Z,9.37
2019-05-03T06:51:08.822Z,9.07
2019-05-03T06:52:07.462Z,9.20
2019-05-03T06:53:12.973Z,8.83
2019-05-03T06:54:20.766Z,9.40
2019-05-03T06:55:22.036Z,9.00
2019-05-03T06:56:29.072Z,8.77
2019-05-03T06:57:31.148Z,8.53
2019-05-03T06:58:36.428Z,9.10
2019-05-03T06:59:41.997Z,8.23
2019-05-03T07:01:04.668Z,8.50
2019-05-03T07:02:28.542Z,9.10
2019-05-03T07:03:45.844Z,9.00
2019-05-03T07:04:56.953Z,8.77
2019-05-03T07:06:18.722Z,8.53
2019-05-03T07:07:28.064Z,8.87
2019-05-03T07:08:47.266Z,7.87
2019-05-03T07:10:07.715Z,8.33
2019-05-03T07:11:11.390Z,8.50
2019-05-03T07:12:15.017Z,8.00
2019-05-03T07:13:18.763Z,8.17
2019-05-03T07:14:24.570Z,7.63
2019-05-03T07:15:28.028Z,8.37
2019-05-03T07:16:31.788Z,7.43
2019-05-03T07:17:35.468Z,7.03
2019-05-03T07:18:39.101Z,7.20
2019-05-03T07:19:42.747Z,6.87
2019-05-03T07:20:56.490Z,7.00
2019-05-03T07:21:59.796Z,6.40
2019-05-03T07:23:04.363Z,7.33
2019-05-03T07:24:08.192Z,7.53
2019-05-03T07:25:11.956Z,7.77
2019-05-03T07:26:15.910Z,8.50
2019-05-03T07:27:19.553Z,6.93
2019-05-03T07:28:24.823Z,7.00
2019-05-03T07:29:28.707Z,7.53
2019-05-03T07:30:35.108Z,6.93
2019-05-03T07:31:37.829Z,7.17
2019-05-03T07:32:44.848Z,7.53
2019-05-03T07:33:48.649Z,7.63
2019-05-03T07:34:52.287Z,7.70
2019-05-03T07:35:56.085Z,7.37
2019-05-03T07:36:59.782Z,7.07
2019-05-03T07:38:05.350Z,7.60
2019-05-03T07:39:09.175Z,7.70
2019-05-03T07:40:14.820Z,6.17
2019-05-03T07:41:18.764Z,6.83
2019-05-03T07:42:22.415Z,6.80
2019-05-03T07:43:26.077Z,7.33
2019-05-03T07:44:29.710Z,7.20
2019-05-03T07:45:35.390Z,7.23
2019-05-03T07:46:38.859Z,7.00
2019-05-03T07:47:42.551Z,6.17
2019-05-03T07:48:46.243Z,6.73
2019-05-03T07:49:49.896Z,5.67
2019-05-03T07:50:54.671Z,7.10
2019-05-03T07:51:58.482Z,6.60
2019-05-03T07:53:02.246Z,6.67
2019-05-03T07:54:06.344Z,6.47
2019-05-03T07:55:09.978Z,6.50
2019-05-03T07:56:15.451Z,6.80
2019-05-03T07:57:25.515Z,6.80
2019-05-03T07:58:30.580Z,6.90
2019-05-03T07:59:35.575Z,5.83
2019-05-03T08:00:39.421Z,6.33
2019-05-03T08:01:45.614Z,6.60
2019-05-03T08:02:49.467Z,6.57
2019-05-03T08:03:55.051Z,6.00
2019-05-03T08:04:58.537Z,6.53
2019-05-03T08:06:04.980Z,6.50
2019-05-03T08:07:19.960Z,6.47
2019-05-03T08:08:15.117Z,6.67
2019-05-03T08:09:18.917Z,6.10
2019-05-03T08:10:22.622Z,6.43
2019-05-03T08:11:26.325Z,6.83
2019-05-03T08:12:31.273Z,6.60
2019-05-03T08:13:35.559Z,6.77
2019-05-03T08:14:39.450Z,6.43
2019-05-03T08:15:45.086Z,6.57
2019-05-03T08:16:48.537Z,6.60
2019-05-03T08:17:52.108Z,6.70
2019-05-03T08:18:56.059Z,7.87
2019-05-03T08:19:59.865Z,7.30
2019-05-03T08:21:05.608Z,7.40
2019-05-03T08:22:11.140Z,7.77
2019-05-03T08:23:26.325Z,7.90
2019-05-03T08:24:22.477Z,7.93
2019-05-03T08:25:26.447Z,7.30
2019-05-03T08:26:30.099Z,7.83
2019-05-03T08:27:35.418Z,7.57
2019-05-03T08:28:40.716Z,8.93
2019-05-03T08:29:45.398Z,7.77
2019-05-03T08:31:08.872Z,8.60
2019-05-03T08:32:19.937Z,8.30
2019-05-03T08:33:35.418Z,8.13
2019-05-03T08:34:46.150Z,7.63
2019-05-03T08:35:51.162Z,7.87
2019-05-03T08:36:59.139Z,7.90
2019-05-03T08:38:04.955Z,6.97
2019-05-03T08:39:09.925Z,8.00
2019-05-03T08:40:15.579Z,8.30
2019-05-03T08:41:20.995Z,7.62
2019-05-03T08:42:25.630Z,7.10
2019-05-03T08:43:29.258Z,7.70
2019-05-03T08:44:35.190Z,7.20
2019-05-03T08:45:38.266Z,7.95
2019-05-03T08:46:42.134Z,7.70
2019-05-03T08:47:45.768Z,7.97
2019-05-03T08:48:49.757Z,7.22
2019-05-03T08:49:55.466Z,8.05
2019-05-03T08:50:58.756Z,7.70
2019-05-03T08:52:02.545Z,7.20
2019-05-03T08:53:07.364Z,6.53
2019-05-03T08:54:11.071Z,6.55
2019-05-03T08:55:15.877Z,6.75
2019-05-03T08:56:19.773Z,7.00
2019-05-03T08:57:25.414Z,5.45
2019-05-03T08:58:28.997Z,6.03
2019-05-03T08:59:32.959Z,5.87
2019-05-03T09:00:38.779Z,6.72
2019-05-03T09:01:42.530Z,6.30
2019-05-03T09:02:46.333Z,6.05
2019-05-03T09:03:49.919Z,6.05
2019-05-03T09:04:54.650Z,5.00
2019-05-03T09:05:58.755Z,3.77
2019-05-03T09:07:05.312Z,4.53
2019-05-03T09:08:09.150Z,3.92
2019-05-03T09:09:25.444Z,4.22
2019-05-03T09:10:35.561Z,4.00
2019-05-03T09:11:39.323Z,4.03
2019-05-03T09:12:56.283Z,4.00
2019-05-03T09:14:05.507Z,4.15
2019-05-03T09:15:09.349Z,4.95
2019-05-03T09:16:14.730Z,4.33
2019-05-03T09:17:18.366Z,4.00
2019-05-03T09:18:22.110Z,3.77
2019-05-03T09:19:25.963Z,3.67
2019-05-03T09:20:32.263Z,3.50
2019-05-03T09:21:34.960Z,3.47
2019-05-03T09:22:38.680Z,3.30
2019-05-03T09:23:42.328Z,3.08
2019-05-03T09:24:46.085Z,2.80
2019-05-03T09:25:49.720Z,2.95
2019-05-03T09:26:55.407Z,2.60
2019-05-03T09:27:59.094Z,2.90
2019-05-03T09:29:05.557Z,3.08
2019-05-03T09:30:09.679Z,3.30
2019-05-03T09:31:15.720Z,3.05
2019-05-03T09:32:19.914Z,3.72
2019-05-03T09:33:24.870Z,2.90
2019-05-03T09:34:28.840Z,3.90
2019-05-03T09:35:33.782Z,4.40
2019-05-03T09:36:38.080Z,8.15
2019-05-03T09:37:41.709Z,8.35
2019-05-03T09:38:45.909Z,3.80
2019-05-03T09:39:49.679Z,2.87
2019-05-03T09:40:54.590Z,2.40
2019-05-03T09:41:58.854Z,2.77
2019-05-03T09:43:04.343Z,2.58
2019-05-03T09:44:07.893Z,3.12
2019-05-03T09:45:12.021Z,2.75
2019-05-03T09:46:16.136Z,2.85
2019-05-03T09:47:19.853Z,2.10
2019-05-03T09:48:25.451Z,2.30
2019-05-03T09:49:29.081Z,1.95
2019-05-03T09:50:32.734Z,2.47
2019-05-03T09:51:36.431Z,2.70
2019-05-03T09:52:40.059Z,2.55
2019-05-03T09:53:45.337Z,2.60
2019-05-03T09:54:50.676Z,4.28
2019-05-03T09:55:55.511Z,2.30
2019-05-03T09:57:00.021Z,2.20
2019-05-03T09:58:05.497Z,2.62
2019-05-03T09:59:09.314Z,2.05
2019-05-03T10:00:16.107Z,2.40
2019-05-03T10:01:19.322Z,1.50
2019-05-03T10:02:24.759Z,1.32
2019-05-03T10:03:31.139Z,1.95
2019-05-03T10:04:36.597Z,2.10
2019-05-03T10:05:40.119Z,1.80
2019-05-03T10:06:45.197Z,1.60
2019-05-03T10:07:49.106Z,1.85
2019-05-03T10:08:52.818Z,2.42
2019-05-03T10:09:56.825Z,2.58
2019-05-03T10:11:15.133Z,1.90
2019-05-03T10:12:19.809Z,2.00
2019-05-03T10:13:27.112Z,1.95
2019-05-03T10:14:30.127Z,1.87
2019-05-03T10:15:38.095Z,2.08
2019-05-03T10:16:44.852Z,2.15
2019-05-03T10:17:50.254Z,1.85
2019-05-03T10:18:55.280Z,2.00
2019-05-03T10:19:59.041Z,1.87
2019-05-03T10:21:05.134Z,2.27
2019-05-03T10:22:08.181Z,2.25
2019-05-03T10:23:16.217Z,2.50
2019-05-03T10:24:19.895Z,2.33
2019-05-03T10:25:24.828Z,2.20
2019-05-03T10:26:28.632Z,2.25
2019-05-03T10:27:43.123Z,2.83
2019-05-03T10:28:46.818Z,2.40
2019-05-03T10:29:50.480Z,2.15
2019-05-03T10:30:54.732Z,2.05
2019-05-03T10:32:09.598Z,2.42
2019-05-03T10:33:15.614Z,2.42
2019-05-03T10:34:19.346Z,2.52
2019-05-03T10:35:24.583Z,2.10
2019-05-03T10:36:28.453Z,2.30
2019-05-03T10:37:32.941Z,2.20
2019-05-03T10:38:37.233Z,1.90
2019-05-03T10:39:41.062Z,2.40
2019-05-03T10:40:45.347Z,2.40
2019-05-03T10:41:49.122Z,2.30
2019-05-03T10:42:52.756Z,2.45
2019-05-03T10:43:56.430Z,2.50
2019-05-03T10:45:00.138Z,2.85
2019-05-03T10:46:05.121Z,2.83
2019-05-03T10:47:08.933Z,2.10
2019-05-03T10:48:12.665Z,2.50
2019-05-03T10:49:16.447Z,2.47
2019-05-03T10:50:20.966Z,2.37
2019-05-03T10:51:26.297Z,2.08
2019-05-03T10:52:31.621Z,2.02
2019-05-03T10:53:36.899Z,2.37
2019-05-03T10:54:40.646Z,2.45
2019-05-03T10:55:45.906Z,2.30
2019-05-03T10:56:51.243Z,2.35
2019-05-03T10:58:05.649Z,2.65
2019-05-03T10:59:11.153Z,2.17
2019-05-03T11:00:41.716Z,2.55
2019-05-03T11:01:40.280Z,2.52
2019-05-03T11:02:48.535Z,2.95
2019-05-03T11:03:52.168Z,3.12
2019-05-03T11:04:55.966Z,3.60
2019-05-03T11:05:59.667Z,3.40
2019-05-03T11:07:05.310Z,2.58
2019-05-03T11:08:08.893Z,2.50
2019-05-03T11:09:15.171Z,2.12
2019-05-03T11:10:19.303Z,2.62
2019-05-03T11:11:22.951Z,2.12
2019-05-03T11:12:27.219Z,2.30
2019-05-03T11:13:30.929Z,3.35
2019-05-03T11:14:35.144Z,4.08
2019-05-03T11:15:38.887Z,3.60
2019-05-03T11:16:42.518Z,2.47
2019-05-03T11:17:46.172Z,2.77
2019-05-03T11:18:49.876Z,2.42
2019-05-03T11:19:54.727Z,2.27
2019-05-03T11:20:58.343Z,2.15
2019-05-03T11:22:02.021Z,2.33
2019-05-03T11:23:07.765Z,2.47
2019-05-03T11:24:11.428Z,2.05
2019-05-03T11:25:15.150Z,2.47
2019-05-03T11:26:19.312Z,2.20
2019-05-03T11:27:24.880Z,2.02
2019-05-03T11:28:28.582Z,2.52
2019-05-03T11:29:32.420Z,2.22
2019-05-03T11:30:36.070Z,2.52
2019-05-03T11:31:57.995Z,2.47
2019-05-03T11:33:05.922Z,2.37
2019-05-03T11:34:11.564Z,2.58
2019-05-03T11:35:31.875Z,2.55
2019-05-03T11:36:54.808Z,2.52
2019-05-03T11:38:02.656Z,2.25
2019-05-03T11:39:08.089Z,2.60
2019-05-03T11:40:12.193Z,2.80
2019-05-03T11:41:28.832Z,2.42
2019-05-03T11:42:21.410Z,2.25
2019-05-03T11:43:25.035Z,2.42
2019-05-03T11:44:40.772Z,2.17
2019-05-03T11:45:44.950Z,2.60
2019-05-03T11:46:48.747Z,2.52
2019-05-03T11:47:52.393Z,2.17
2019-05-03T11:48:56.054Z,2.40
2019-05-03T11:49:59.854Z,2.17
2019-05-03T11:51:03.479Z,2.10
2019-05-03T11:52:07.758Z,2.37
2019-05-03T11:53:11.390Z,3.12
2019-05-03T11:54:16.551Z,3.02
2019-05-03T11:55:20.406Z,2.33
2019-05-03T11:56:24.968Z,2.75
2019-05-03T11:57:28.847Z,2.60
2019-05-03T11:58:34.255Z,2.58
2019-05-03T11:59:38.006Z,2.50
2019-05-03T12:00:41.735Z,2.52
2019-05-03T12:01:51.677Z,2.10
2019-05-03T12:02:56.971Z,2.20
2019-05-03T12:04:00.669Z,2.22
2019-05-03T12:05:15.661Z,2.87
2019-05-03T12:06:19.351Z,2.83
2019-05-03T12:07:38.891Z,2.87
2019-05-03T12:08:37.761Z,2.55
2019-05-03T12:09:41.403Z,2.90
2019-05-03T12:10:55.227Z,2.52
2019-05-03T12:11:55.495Z,2.08
2019-05-03T12:13:05.060Z,2.35
2019-05-03T12:14:12.595Z,2.98
2019-05-03T12:15:16.811Z,2.95
2019-05-03T12:16:32.698Z,2.85
2019-05-03T12:17:29.758Z,3.15
2019-05-03T12:18:47.822Z,2.83
2019-05-03T12:19:39.724Z,2.60
2019-05-03T12:20:46.526Z,2.80
2019-05-03T12:21:49.872Z,2.72
2019-05-03T12:22:54.543Z,3.10
2019-05-03T12:23:59.586Z,2.92
2019-05-03T12:25:09.757Z,2.40
2019-05-03T12:26:12.927Z,3.25
2019-05-03T12:27:15.073Z,3.00
2019-05-03T12:28:18.776Z,2.42
2019-05-03T12:29:24.735Z,2.70
2019-05-03T12:30:28.447Z,3.17
2019-05-03T12:31:39.966Z,3.30
2019-05-03T12:32:37.614Z,3.40
2019-05-03T12:33:41.415Z,2.90
2019-05-03T12:34:45.048Z,3.30
2019-05-03T12:35:48.695Z,3.22
2019-05-03T12:36:52.373Z,3.15
2019-05-03T12:37:56.075Z,3.20
2019-05-03T12:38:59.876Z,3.30
2019-05-03T12:40:05.510Z,2.58
2019-05-03T12:41:09.412Z,2.83
2019-05-03T12:42:14.838Z,2.70
2019-05-03T12:43:18.518Z,2.80
2019-05-03T12:44:22.220Z,2.70
2019-05-03T12:45:25.847Z,2.58
2019-05-03T12:46:29.480Z,2.60
2019-05-03T12:47:34.669Z,2.85
2019-05-03T12:48:38.547Z,3.17
2019-05-03T12:49:42.270Z,2.90
2019-05-03T12:50:47.011Z,2.67
2019-05-03T12:51:50.961Z,2.85
2019-05-03T12:52:55.491Z,3.52
2019-05-03T12:53:59.429Z,3.58
2019-05-03T12:55:04.539Z,2.85
2019-05-03T12:56:12.342Z,3.20
2019-05-03T12:57:15.497Z,2.60
2019-05-03T12:58:19.358Z,3.00
2019-05-03T12:59:36.683Z,3.30
2019-05-03T13:00:42.109Z,3.45
2019-05-03T13:01:47.391Z,3.33
2019-05-03T13:03:04.687Z,3.67
2019-05-03T13:04:09.948Z,3.70
2019-05-03T13:05:15.447Z,2.90
2019-05-03T13:06:18.994Z,2.98
2019-05-03T13:07:28.548Z,3.25
2019-05-03T13:08:40.579Z,2.65
2019-05-03T13:09:45.337Z,2.83
2019-05-03T13:10:49.135Z,2.37
2019-05-03T13:11:58.351Z,3.55
2019-05-03T13:12:59.699Z,4.00
2019-05-03T13:14:04.789Z,3.27
2019-05-03T13:15:09.572Z,3.92
2019-05-03T13:16:15.362Z,3.12
2019-05-03T13:17:21.040Z,3.00
2019-05-03T13:18:25.266Z,2.75
2019-05-03T13:19:29.090Z,2.55
2019-05-03T13:20:32.748Z,2.58
2019-05-03T13:21:36.400Z,2.67
2019-05-03T13:22:41.070Z,2.58
2019-05-03T13:23:45.343Z,3.10
2019-05-03T13:24:49.138Z,2.92
2019-05-03T13:25:52.765Z,3.98
2019-05-03T13:26:56.401Z,4.00
2019-05-03T13:28:00.208Z,3.67
2019-05-03T13:29:05.903Z,3.27
2019-05-03T13:30:10.460Z,2.95
2019-05-03T13:31:16.136Z,3.12
2019-05-03T13:32:19.559Z,2.62
2019-05-03T13:33:23.276Z,2.72
2019-05-03T13:34:26.926Z,2.85
2019-05-03T13:35:30.553Z,2.85
2019-05-03T13:36:36.568Z,2.98
2019-05-03T13:37:40.221Z,3.33
2019-05-03T13:38:45.241Z,2.70
2019-05-03T13:39:49.011Z,2.92
2019-05-03T13:40:54.359Z,2.62
2019-05-03T13:41:58.063Z,2.50
2019-05-03T13:43:05.908Z,2.40
2019-05-03T13:44:07.276Z,2.40
2019-05-03T13:45:10.917Z,2.72
2019-05-03T13:46:15.662Z,2.67
2019-05-03T13:47:19.414Z,2.60
2019-05-03T13:48:24.229Z,2.30
2019-05-03T13:49:28.608Z,2.65
2019-05-03T13:50:32.306Z,2.87
2019-05-03T13:51:35.979Z,3.22
2019-05-03T13:52:39.691Z,3.40
2019-05-03T13:53:43.325Z,3.20
2019-05-03T13:54:47.844Z,3.15
2019-05-03T13:55:51.603Z,2.98
2019-05-03T13:56:55.371Z,2.92
2019-05-03T13:57:59.075Z,2.70
2019-05-03T13:59:04.610Z,3.70
2019-05-03T14:00:08.257Z,3.00
2019-05-03T14:01:11.902Z,3.22
2019-05-03T14:02:19.159Z,2.58
2019-05-03T14:03:20.944Z,2.83
2019-05-03T14:04:24.579Z,2.80
2019-05-03T14:05:28.261Z,2.55
2019-05-03T14:06:33.695Z,2.75
2019-05-03T14:07:37.296Z,3.02
2019-05-03T14:08:40.954Z,2.90
2019-05-03T14:09:45.270Z,4.00
2019-05-03T14:10:49.495Z,2.92
2019-05-03T14:11:55.314Z,7.37
2019-05-03T14:12:59.078Z,3.00
2019-05-03T14:14:04.577Z,3.00
2019-05-03T14:15:08.504Z,4.28
2019-05-03T14:16:14.315Z,3.62
2019-05-03T14:17:17.748Z,2.80
2019-05-03T14:18:21.542Z,2.75
2019-05-03T14:19:29.643Z,3.22
2019-05-03T14:20:37.904Z,3.72
2019-05-03T14:21:43.196Z,3.22
2019-05-03T14:22:48.483Z,3.17
2019-05-03T14:24:11.637Z,3.20
2019-05-03T14:25:15.371Z,2.77
2019-05-03T14:26:19.139Z,2.95
2019-05-03T14:27:22.763Z,3.55
2019-05-03T14:28:28.793Z,3.37
2019-05-03T14:29:34.655Z,2.95